Airport View

Enter AWOS ICAO identifier for current METAR.

ex. KFNL

KICT 192053Z 14011KT 10SM FEW180 FEW250 36/24 A2992 RMK AO2 SLP111 T03610239 58016

19 Aug 2019 21:12

Phone: 316-945-8022

Other Area AWOS: KIAB - KBEC - KAAO - K1K1

TAF KICT 191722Z 1918/2018 17013KT P6SM FEW250 FM200100 16009KT P6SM SCT250 FM201500 17012KT P6SM SCT200